Airfield :
LOGIN :

Register | Disclaimer

   EN    FR    IT 

 










Legend :    VFR   Marginal VFR   IFR   Intensive IFR   Very Intensive IFR
Visi :
Ceiling :
>= 8 km
>= 3000ft
5 to 8 km
1000 to 3000 ft
1500m to 5 km
500 to 1000 ft
800 to 1500m
200 to 500 ft
< 800m
< 200 ft
Symbols :   Thunderstorms  Fog  Heavy snow  Heavy precipitations  Wind > 20 kt
SIGMETs :     Misc.  Thunderstorms  Icing  Turbulence  Mountain Waves  Volcanic Ashes







- Airport Elevation : 408 ft
- IATA code : FKB


EDSB - Karlsruhe Baden Baden

CURRENT METAR :
  • 251420Z VRB02KT 9999 -SHRA SCT035 SCT055 10/05 Q1009

EXPIRED METARs :
  • 251350Z VRB03KT 9999 SCT035 10/04 Q1009
  • 251320Z 34004KT 300V020 9999 FEW025 SCT055 10/04 Q1009
  • 251250Z 33006KT 300V360 9999 FEW025 SCT049 10/05 Q1009
  • 251220Z 32007KT 290V350 9999 FEW035 BKN052 11/06 Q1009
  • 251150Z 32008KT 270V350 9999 FEW035 BKN050 11/05 Q1009

TAF TAF EDSB
Valid from the 25 at 12:00 until the 26 at 12:00 UTC


251100Z 2512/2612 30007KT 9999 SCT030
TEMPO 2516/2601 4000 RA
TEMPO 2516/2610 BKN012
BECMG 2518/2521 02005KT
PROB30
TEMPO 2522/2607 BKN008
No reported NOTAMs for that airfield.



MET'MAP, your aeronautical weather chart ! - Copyright ORBIFLY December 2007 - Disclaimer

ORBIFLY MET'MAP TEAM :

Programming & Development : Alexandra Zaïnal
Concept & Development : Baudouin d'Aumeries
Co-Development & Prog : Marc-Olivier Méhu
Technical & hardware support : Manuel Goepfert

Contact : metmap@orbifly.com




SOURCES & CREDITS :

   NOAA